Time;durP1;ratioP1;P1;durP2;ratioP2;P2;SDS_P1;SDS_P2;PMS_P1;PMS_P2;Temp;Humidity;BMP_temperature;BMP_pressure;BME280_temperature;BME280_humidity;BME280_pressure;Samples;Min_cycle;Max_cycle;Signal;HPM_P1;HPM_P2
2023/12/10 00:00:47;;;;;;;97.88;28.58;;;;;;;1.47;76.32;99624.75;4452846;32;33659;-79
2023/12/10 00:03:19;;;;;;;159.52;34.55;;;;;;;1.24;77.26;99615.13;4453497;32;33759;-79
2023/12/10 00:05:50;;;;;;;131.63;31.92;;;;;;;0.80;78.58;99616.69;4452709;32;34626;-79
2023/12/10 00:08:35;;;;;;;143.15;34.13;;;;;;;1.10;78.32;99623.41;4446341;32;34046;-79
2023/12/10 00:11:05;;;;;;;101.25;32.42;;;;;;;0.94;78.47;99622.25;4452656;32;33739;-80
2023/12/10 00:13:34;;;;;;;135.88;31.10;;;;;;;1.12;77.99;99612.94;4452473;32;33918;-79
2023/12/10 00:16:04;;;;;;;132.37;34.03;;;;;;;1.20;77.70;99609.16;4450641;32;33642;-79
2023/12/10 00:18:33;;;;;;;133.30;31.33;;;;;;;1.15;77.70;99600.66;4453325;32;33869;-79
2023/12/10 00:21:05;;;;;;;101.00;31.65;;;;;;;1.20;77.67;99595.25;4452223;32;33815;-79
2023/12/10 00:23:34;;;;;;;104.55;29.30;;;;;;;1.05;77.75;99603.63;4452242;32;33698;-79
2023/12/10 00:26:04;;;;;;;66.35;26.20;;;;;;;1.07;77.64;99600.06;4451606;32;34437;-79
2023/12/10 00:28:34;;;;;;;93.85;28.60;;;;;;;1.15;77.15;99597.19;4453009;32;34444;-79
2023/12/10 00:31:07;;;;;;;71.32;25.02;;;;;;;0.90;77.92;99599.78;4452499;32;33269;-79
2023/12/10 00:33:37;;;;;;;94.10;30.73;;;;;;;1.17;77.89;99605.81;4446909;32;33796;-79
2023/12/10 00:36:10;;;;;;;63.80;28.15;;;;;;;0.83;78.73;99607.00;4450622;32;49089;-79
2023/12/10 00:38:39;;;;;;;58.80;23.67;;;;;;;1.40;76.77;99604.97;4452539;32;33501;-79
2023/12/10 00:41:10;;;;;;;72.20;27.17;;;;;;;1.34;76.85;99598.22;4452646;32;33740;-79
2023/12/10 00:43:41;;;;;;;101.07;30.90;;;;;;;1.47;76.45;99601.25;4452268;32;34871;-79
2023/12/10 00:46:10;;;;;;;84.22;29.02;;;;;;;1.28;77.06;99592.38;4452823;32;33773;-79
2023/12/10 00:48:40;;;;;;;53.15;25.77;;;;;;;1.04;77.70;99594.94;4453034;32;33798;-79
2023/12/10 00:51:20;;;;;;;72.57;28.70;;;;;;;1.41;77.21;99588.41;4452366;32;50506;-79
2023/12/10 00:53:50;;;;;;;75.57;26.92;;;;;;;1.37;76.82;99586.81;4452096;32;33635;-79
2023/12/10 00:56:19;;;;;;;81.68;26.25;;;;;;;1.02;77.98;99591.53;4449990;32;34748;-79
2023/12/10 00:58:49;;;;;;;73.15;27.45;;;;;;;1.09;77.98;99577.38;4452312;32;34187;-79
2023/12/10 01:01:18;;;;;;;98.35;31.52;;;;;;;1.12;77.78;99577.25;4452019;32;33430;-79
2023/12/10 01:03:47;;;;;;;76.90;28.92;;;;;;;1.11;78.07;99570.34;4451857;32;33939;-79
2023/12/10 01:06:19;;;;;;;75.10;29.02;;;;;;;0.98;78.49;99569.06;4453106;32;34662;-79
2023/12/10 01:08:48;;;;;;;96.90;33.17;;;;;;;0.97;78.49;99565.59;4452650;32;33604;-79
2023/12/10 01:11:18;;;;;;;86.18;31.23;;;;;;;1.30;77.48;99578.34;4437695;32;32358;-79
2023/12/10 01:13:48;;;;;;;79.72;30.48;;;;;;;1.05;78.30;99574.94;4452267;32;34096;-80
2023/12/10 01:16:17;;;;;;;113.05;28.17;;;;;;;1.64;76.58;99567.50;4450414;32;34893;-79
2023/12/10 01:18:47;;;;;;;149.45;34.92;;;;;;;1.25;77.23;99563.78;4451674;32;34134;-77
2023/12/10 01:21:19;;;;;;;117.30;34.17;;;;;;;1.35;77.09;99567.75;4451425;32;33896;-76
2023/12/10 01:23:49;;;;;;;159.52;36.20;;;;;;;1.45;76.75;99569.09;4450948;32;33858;-77
2023/12/10 01:26:18;;;;;;;115.57;29.37;;;;;;;1.32;77.28;99568.72;4451117;32;33854;-77
2023/12/10 01:28:48;;;;;;;115.65;29.30;;;;;;;1.06;78.25;99566.19;4450957;32;34077;-77
2023/12/10 01:31:18;;;;;;;94.78;30.95;;;;;;;0.93;78.69;99558.81;4450844;32;34228;-77
2023/12/10 01:33:47;;;;;;;111.53;34.20;;;;;;;1.54;77.10;99553.09;4450834;32;34019;-76
2023/12/10 01:36:24;;;;;;;104.47;34.28;;;;;;;1.64;76.12;99536.16;4449317;32;34286;-76
2023/12/10 01:38:55;;;;;;;80.65;29.80;;;;;;;1.53;76.81;99550.53;4452428;32;34078;-76
2023/12/10 01:41:25;;;;;;;111.00;33.97;;;;;;;1.38;77.09;99551.97;4452835;32;33409;-77
2023/12/10 01:43:55;;;;;;;68.72;30.80;;;;;;;1.12;78.24;99545.09;4452627;32;34627;-76
2023/12/10 01:46:24;;;;;;;67.25;29.27;;;;;;;1.43;77.52;99539.59;4452791;32;34007;-78
2023/12/10 01:48:56;;;;;;;97.88;32.72;;;;;;;1.49;77.11;99536.75;4452743;32;34076;-77
2023/12/10 01:51:27;;;;;;;122.57;34.28;;;;;;;0.99;78.35;99529.06;4452716;32;34301;-78
2023/12/10 01:53:57;;;;;;;102.90;33.60;;;;;;;1.10;78.33;99536.47;4452492;32;34777;-78
2023/12/10 01:56:28;;;;;;;116.30;32.78;;;;;;;1.21;78.11;99529.94;4436551;32;32642;-78
2023/12/10 01:58:58;;;;;;;88.35;30.48;;;;;;;1.23;77.79;99522.09;4452795;32;33589;-78
2023/12/10 02:01:35;;;;;;;85.75;32.60;;;;;;;1.10;78.34;99520.81;4452799;32;33930;-78
2023/12/10 02:04:05;;;;;;;77.93;30.10;;;;;;;1.21;78.10;99510.84;4452997;32;33533;-77
2023/12/10 02:06:37;;;;;;;76.70;32.70;;;;;;;1.43;77.22;99514.34;4453206;32;33912;-78
2023/12/10 02:09:09;;;;;;;76.78;30.20;;;;;;;1.41;77.30;99510.94;4453033;32;49556;-78
2023/12/10 02:11:38;;;;;;;57.93;28.53;;;;;;;1.15;78.25;99514.53;4452797;32;34586;-78
2023/12/10 02:14:07;;;;;;;58.78;27.65;;;;;;;1.50;77.15;99507.13;4438323;32;32226;-78
2023/12/10 02:16:39;;;;;;;58.35;27.37;;;;;;;1.29;77.69;99513.16;4465199;32;33995;-77
2023/12/10 02:19:10;;;;;;;58.05;26.92;;;;;;;1.00;78.68;99507.25;4481400;32;34408;-78
2023/12/10 02:21:54;;;;;;;47.25;23.30;;;;;;;1.36;77.03;99494.59;4483823;32;34414;-77
2023/12/10 02:24:31;;;;;;;53.83;25.27;;;;;;;1.23;77.21;99491.63;4482494;32;34158;-77
2023/12/10 02:27:01;;;;;;;55.17;25.52;;;;;;;1.07;78.21;99485.28;4480218;32;34418;-78
2023/12/10 02:29:31;;;;;;;48.75;23.95;;;;;;;0.98;78.48;99477.75;4484256;32;33836;-78
2023/12/10 02:32:00;;;;;;;55.97;27.02;;;;;;;1.32;77.34;99468.69;4476706;32;33540;-78
2023/12/10 02:34:30;;;;;;;55.40;26.58;;;;;;;0.95;78.62;99468.31;4479308;32;34151;-78
2023/12/10 02:36:59;;;;;;;52.83;24.27;;;;;;;1.24;77.88;99461.13;4468165;32;34028;-77
2023/12/10 02:39:31;;;;;;;57.45;25.30;;;;;;;1.34;77.19;99445.97;4468309;32;34037;-78
2023/12/10 02:42:03;;;;;;;59.45;27.00;;;;;;;1.30;77.40;99429.56;4467765;32;33535;-78
2023/12/10 02:44:34;;;;;;;51.83;25.83;;;;;;;1.12;77.82;99420.72;4468127;32;33968;-78
2023/12/10 02:47:04;;;;;;;52.78;23.95;;;;;;;1.28;77.15;99420.13;4467915;32;34639;-78
2023/12/10 02:49:35;;;;;;;52.88;23.85;;;;;;;1.03;77.98;99431.50;4460845;32;33649;-77
2023/12/10 02:52:05;;;;;;;48.42;24.87;;;;;;;0.97;78.42;99419.53;4467562;32;34705;-78
2023/12/10 02:54:36;;;;;;;45.55;23.73;;;;;;;0.96;78.71;99416.97;4445617;32;31996;-78
2023/12/10 02:57:09;;;;;;;45.67;25.33;;;;;;;0.92;78.72;99408.41;4467906;32;33887;-78
2023/12/10 02:59:40;;;;;;;45.58;24.83;;;;;;;0.96;78.55;99401.34;4462147;32;33986;-78
2023/12/10 03:02:11;;;;;;;53.85;25.37;;;;;;;1.21;77.84;99409.06;4467658;32;33819;-78
2023/12/10 03:04:40;;;;;;;51.90;24.55;;;;;;;1.30;77.46;99413.06;4467898;32;33749;-78
2023/12/10 03:07:09;;;;;;;47.55;24.58;;;;;;;0.50;79.92;99416.06;4468002;32;33980;-77
2023/12/10 03:09:39;;;;;;;58.85;24.10;;;;;;;0.40;80.61;99401.69;4468272;32;34019;-77
2023/12/10 03:12:10;;;;;;;56.10;26.77;;;;;;;0.82;79.92;99395.78;4466994;32;48867;-78
2023/12/10 03:14:40;;;;;;;61.03;25.08;;;;;;;0.72;79.57;99385.69;4460095;32;33518;-78
2023/12/10 03:17:09;;;;;;;58.17;28.08;;;;;;;0.59;80.89;99399.22;4467889;32;33983;-78
2023/12/10 03:19:40;;;;;;;62.13;28.73;;;;;;;0.79;80.11;99396.72;4467611;32;33864;-77
2023/12/10 03:22:12;;;;;;;57.42;26.65;;;;;;;0.87;79.04;99399.94;4467982;32;33200;-78
2023/12/10 03:24:41;;;;;;;50.78;23.05;;;;;;;1.11;78.52;99413.78;4468510;32;33519;-78
2023/12/10 03:27:12;;;;;;;56.92;27.80;;;;;;;1.39;77.59;99417.94;4467830;32;48729;-78
2023/12/10 03:29:41;;;;;;;46.92;25.77;;;;;;;1.87;76.08;99425.56;4467914;32;33717;-78
2023/12/10 03:32:10;;;;;;;55.95;25.70;;;;;;;2.09;75.06;99422.03;4467304;32;33262;-77
2023/12/10 03:34:42;;;;;;;57.60;26.58;;;;;;;1.71;75.79;99427.94;4451091;32;34066;-77
2023/12/10 03:37:12;;;;;;;54.90;26.87;;;;;;;1.86;75.65;99429.09;4467734;32;34143;-77
2023/12/10 03:39:42;;;;;;;68.03;29.45;;;;;;;1.34;76.57;99425.94;4467811;32;33610;-77
2023/12/10 03:42:14;;;;;;;62.03;27.62;;;;;;;1.37;77.50;99436.25;4467781;32;33725;-78
2023/12/10 03:44:43;;;;;;;58.55;26.08;;;;;;;1.27;77.82;99431.44;4467302;32;34647;-77
2023/12/10 03:47:14;;;;;;;63.50;27.42;;;;;;;1.17;78.39;99436.19;4467713;32;35309;-77
2023/12/10 03:49:47;;;;;;;54.70;27.50;;;;;;;1.50;77.17;99433.16;4467577;32;34333;-77
2023/12/10 03:52:17;;;;;;;62.90;29.92;;;;;;;1.06;78.69;99438.34;4466972;32;33293;-78
2023/12/10 03:54:47;;;;;;;57.08;26.25;;;;;;;1.28;78.00;99433.16;4465398;32;34596;-78
2023/12/10 03:57:17;;;;;;;72.50;31.05;;;;;;;1.54;77.46;99421.69;4468065;32;34219;-78
2023/12/10 03:59:47;;;;;;;72.72;26.60;;;;;;;1.10;78.40;99414.69;4467255;32;34154;-78
2023/12/10 04:02:19;;;;;;;60.50;26.85;;;;;;;1.55;77.15;99410.34;4467020;32;33228;-78
2023/12/10 04:04:50;;;;;;;69.37;27.20;;;;;;;1.44;77.57;99422.06;4467503;32;34703;-78
2023/12/10 04:07:19;;;;;;;71.00;27.42;;;;;;;1.31;77.68;99428.69;4467282;32;34200;-77
2023/12/10 04:09:48;;;;;;;60.10;24.77;;;;;;;1.07;78.94;99424.38;4467523;32;33879;-77
2023/12/10 04:12:21;;;;;;;67.87;24.65;;;;;;;1.54;76.74;99419.91;4453113;32;32551;-78
2023/12/10 04:14:50;;;;;;;61.15;26.90;;;;;;;1.92;75.79;99418.38;4465095;32;33558;-78
2023/12/10 04:17:19;;;;;;;57.67;25.95;;;;;;;1.77;76.29;99419.00;4467453;32;34998;-79
2023/12/10 04:19:48;;;;;;;41.50;21.23;;;;;;;1.69;76.09;99415.84;4467457;32;33997;-78
2023/12/10 04:22:19;;;;;;;53.65;24.52;;;;;;;1.25;77.08;99415.00;4467467;32;33426;-78
2023/12/10 04:24:48;;;;;;;40.55;21.62;;;;;;;1.21;77.61;99414.28;4467178;32;33861;-78
2023/12/10 04:27:17;;;;;;;36.58;21.02;;;;;;;1.22;77.06;99410.75;4467931;32;35489;-78
2023/12/10 04:29:48;;;;;;;46.78;21.90;;;;;;;1.32;77.11;99413.87;4467289;32;33945;-78
2023/12/10 04:32:20;;;;;;;46.25;22.35;;;;;;;0.89;78.23;99408.53;4466736;32;33164;-78
2023/12/10 04:34:49;;;;;;;53.08;23.30;;;;;;;1.10;78.20;99404.25;4465320;32;34198;-78
2023/12/10 04:37:19;;;;;;;52.88;23.50;;;;;;;1.38;77.22;99414.47;4467593;32;33573;-78
2023/12/10 04:39:48;;;;;;;56.03;25.33;;;;;;;1.16;77.87;99424.06;4467107;32;33866;-78
2023/12/10 04:42:17;;;;;;;45.33;20.85;;;;;;;1.55;76.26;99415.56;4467377;32;34926;-79
2023/12/10 04:44:48;;;;;;;45.35;22.45;;;;;;;1.62;76.07;99406.56;4467279;32;33347;-78
2023/12/10 04:47:21;;;;;;;44.35;24.15;;;;;;;1.48;76.46;99407.97;4467024;32;34754;-78
2023/12/10 04:49:50;;;;;;;40.60;21.05;;;;;;;1.76;75.55;99419.91;4467281;32;33964;-78
2023/12/10 04:52:22;;;;;;;39.70;20.50;;;;;;;1.89;74.26;99421.09;4466828;32;33023;-78
2023/12/10 04:54:51;;;;;;;36.38;20.15;;;;;;;1.63;75.16;99414.34;4465248;32;33930;-78
2023/12/10 04:57:20;;;;;;;37.83;19.50;;;;;;;1.45;75.40;99422.91;4467599;32;34711;-78
2023/12/10 04:59:51;;;;;;;39.65;21.25;;;;;;;1.79;74.77;99424.16;4467201;32;33379;-78
2023/12/10 05:02:20;;;;;;;39.83;21.90;;;;;;;1.52;75.47;99423.53;4466928;32;33364;-78
2023/12/10 05:04:49;;;;;;;35.38;17.85;;;;;;;1.96;74.15;99425.16;4466775;32;35227;-78
2023/12/10 05:07:19;;;;;;;41.03;19.58;;;;;;;1.54;75.39;99422.53;4467231;32;34366;-78
2023/12/10 05:09:48;;;;;;;42.35;20.17;;;;;;;1.82;74.78;99418.78;4467116;32;33774;-79
2023/12/10 05:12:18;;;;;;;33.38;19.15;;;;;;;1.28;76.19;99414.91;4465808;32;33679;-78
2023/12/10 05:14:47;;;;;;;34.75;19.35;;;;;;;1.70;75.03;99405.34;4465113;32;33958;-78
2023/12/10 05:17:18;;;;;;;36.85;18.30;;;;;;;1.84;74.53;99396.09;4467315;32;33981;-79
2023/12/10 05:19:50;;;;;;;31.52;18.70;;;;;;;1.99;73.63;99395.44;4466774;32;33858;-78
2023/12/10 05:22:22;;;;;;;30.83;16.60;;;;;;;1.78;74.53;99394.56;4466761;32;33719;-78
2023/12/10 05:24:54;;;;;;;29.45;17.80;;;;;;;1.79;74.75;99404.13;4466969;32;34297;-78
2023/12/10 05:27:24;;;;;;;38.20;18.60;;;;;;;1.66;74.88;99398.56;4467147;32;33643;-78
2023/12/10 05:29:53;;;;;;;32.70;17.95;;;;;;;1.89;74.21;99401.97;4466820;32;34446;-78
2023/12/10 05:32:23;;;;;;;38.20;17.10;;;;;;;2.36;72.26;99407.78;4466553;32;34387;-79
2023/12/10 05:34:53;;;;;;;31.77;17.40;;;;;;;1.65;74.63;99419.50;4464787;32;33495;-78
2023/12/10 05:37:23;;;;;;;27.65;16.35;;;;;;;1.81;74.19;99410.12;4466691;32;34831;-78
2023/12/10 05:39:52;;;;;;;29.85;16.70;;;;;;;2.21;73.32;99416.28;4466844;32;34074;-78
2023/12/10 05:42:21;;;;;;;32.75;18.08;;;;;;;2.13;73.30;99420.97;4467017;32;33166;-79
2023/12/10 05:44:51;;;;;;;25.95;16.92;;;;;;;2.31;72.60;99420.22;4466400;32;33878;-78
2023/12/10 05:47:20;;;;;;;31.62;16.67;;;;;;;2.12;73.21;99417.53;4466678;32;33957;-79
2023/12/10 05:49:52;;;;;;;26.40;16.12;;;;;;;2.15;73.32;99422.63;4466706;32;33374;-79
2023/12/10 05:52:21;;;;;;;27.37;17.27;;;;;;;2.46;71.97;99416.94;4465880;32;33754;-78
2023/12/10 05:54:50;;;;;;;28.35;16.55;;;;;;;2.54;71.93;99408.75;4464451;32;33756;-78
2023/12/10 05:57:19;;;;;;;29.48;17.35;;;;;;;2.30;72.37;99412.44;4466854;32;34184;-78
2023/12/10 05:59:48;;;;;;;24.10;15.85;;;;;;;2.55;71.88;99418.28;4466270;32;35009;-79
2023/12/10 06:02:18;;;;;;;25.73;15.82;;;;;;;2.39;72.39;99425.09;4466243;32;33502;-78
2023/12/10 06:04:47;;;;;;;25.62;15.43;;;;;;;2.46;72.08;99422.16;4466619;32;33726;-78
2023/12/10 06:07:18;;;;;;;26.73;15.88;;;;;;;2.76;71.29;99421.69;4466459;32;34220;-78
2023/12/10 06:09:47;;;;;;;31.42;17.67;;;;;;;2.55;71.42;99420.06;4466101;32;33872;-78
2023/12/10 06:12:18;;;;;;;26.90;15.98;;;;;;;2.83;70.82;99417.06;4466105;32;33491;-78
2023/12/10 06:14:48;;;;;;;29.77;17.48;;;;;;;2.85;70.74;99409.97;4464239;32;33564;-78
2023/12/10 06:17:18;;;;;;;31.48;19.05;;;;;;;2.88;70.74;99407.22;4465813;32;34532;-78
2023/12/10 06:19:47;;;;;;;27.62;16.87;;;;;;;2.83;71.05;99417.06;4466003;32;34349;-78
2023/12/10 06:22:18;;;;;;;27.40;16.30;;;;;;;2.85;70.65;99417.81;4465724;32;34487;-78
2023/12/10 06:24:47;;;;;;;25.67;15.75;;;;;;;2.76;70.92;99415.63;4467248;32;34009;-78
2023/12/10 06:27:18;;;;;;;26.77;17.42;;;;;;;2.75;70.79;99422.63;4468843;32;34039;-78
2023/12/10 06:29:47;;;;;;;27.33;16.80;;;;;;;2.63;71.21;99423.19;4468308;32;33945;-78
2023/12/10 06:32:18;;;;;;;29.30;16.80;;;;;;;2.21;72.14;99426.72;4467443;32;34256;-78
2023/12/10 06:34:48;;;;;;;27.40;17.42;;;;;;;2.43;71.78;99430.13;4465996;32;33992;-78
2023/12/10 06:37:23;;;;;;;28.45;17.25;;;;;;;2.61;71.49;99435.47;4468023;32;33839;-78
2023/12/10 06:39:56;;;;;;;26.98;17.12;;;;;;;2.43;71.73;99431.91;4468036;32;34650;-78
2023/12/10 06:42:27;;;;;;;30.83;19.05;;;;;;;2.54;71.81;99437.53;4468348;32;33095;-78
2023/12/10 06:45:00;;;;;;;28.65;17.23;;;;;;;2.86;70.98;99441.31;4453917;32;33242;-78
2023/12/10 06:47:29;;;;;;;27.83;17.37;;;;;;;2.76;71.03;99449.63;4468013;32;34813;-78
2023/12/10 06:49:59;;;;;;;28.48;15.88;;;;;;;2.55;71.43;99457.50;4468090;32;33652;-78
2023/12/10 06:52:30;;;;;;;27.15;16.37;;;;;;;2.87;70.78;99455.25;4467495;32;34350;-78
2023/12/10 06:54:59;;;;;;;32.50;17.33;;;;;;;2.77;71.04;99464.41;4465987;32;33958;-79
2023/12/10 06:57:29;;;;;;;29.92;17.30;;;;;;;2.63;71.19;99472.88;4468311;32;35234;-78
2023/12/10 06:59:59;;;;;;;27.95;16.92;;;;;;;2.54;71.84;99474.13;4468129;32;34610;-79
2023/12/10 07:02:28;;;;;;;30.52;18.67;;;;;;;2.69;71.03;99472.59;4467910;32;33644;-78
2023/12/10 07:04:58;;;;;;;33.92;19.52;;;;;;;2.41;71.87;99476.41;4467951;32;33965;-78
2023/12/10 07:07:27;;;;;;;37.88;22.87;;;;;;;2.49;71.44;99472.63;4468391;32;34768;-79
2023/12/10 07:09:57;;;;;;;37.97;23.10;;;;;;;2.59;71.34;99469.53;4470470;32;33903;-79
2023/12/10 07:12:27;;;;;;;32.67;20.98;;;;;;;2.21;72.55;99474.63;4469532;32;34257;-79
2023/12/10 07:14:56;;;;;;;32.45;19.52;;;;;;;2.42;72.02;99483.34;4468171;32;34582;-79
2023/12/10 07:17:26;;;;;;;30.20;18.58;;;;;;;2.78;70.44;99481.84;4455542;32;34016;-79
2023/12/10 07:19:56;;;;;;;30.95;19.10;;;;;;;2.58;71.35;99477.47;4469914;32;33587;-79
2023/12/10 07:22:25;;;;;;;32.42;20.05;;;;;;;2.93;70.39;99476.75;4470055;32;33700;-79
2023/12/10 07:25:04;;;;;;;;;;;;;;;2.85;70.74;99484.09;4456632;32;32527;-79
2023/12/10 07:27:33;;;;;;;32.63;21.73;;;;;;;3.05;70.29;99485.84;4470694;32;35037;-79
2023/12/10 07:30:03;;;;;;;32.85;22.80;;;;;;;2.87;70.65;99486.66;4468797;32;33995;-79
2023/12/10 07:32:33;;;;;;;27.05;17.25;;;;;;;3.02;70.42;99487.75;4468690;32;33679;-79
2023/12/10 07:35:02;;;;;;;24.92;16.23;;;;;;;2.83;70.81;99496.41;4466572;32;34917;-79
2023/12/10 07:37:31;;;;;;;24.12;16.73;;;;;;;3.21;70.14;99493.84;4468814;32;34013;-80
2023/12/10 07:40:05;;;;;;;26.75;17.42;;;;;;;3.29;69.68;99489.09;4469334;32;33842;-79
2023/12/10 07:42:35;;;;;;;32.08;21.17;;;;;;;3.45;69.43;99494.47;4469793;32;33230;-80
2023/12/10 07:45:05;;;;;;;30.08;18.95;;;;;;;3.29;69.66;99496.97;4468452;32;34035;-79
2023/12/10 07:47:34;;;;;;;27.42;20.15;;;;;;;3.37;69.57;99488.75;4468970;32;33454;-80
2023/12/10 07:50:05;;;;;;;36.55;23.50;;;;;;;3.45;69.50;99495.31;4468993;32;33943;-79
2023/12/10 07:52:34;;;;;;;31.35;23.15;;;;;;;3.44;69.34;99498.87;4468426;32;33787;-79
2023/12/10 07:55:07;;;;;;;25.30;18.95;;;;;;;3.39;69.35;99500.00;4467567;32;33438;-79
2023/12/10 07:57:36;;;;;;;29.23;19.00;;;;;;;2.99;70.44;99493.94;4468514;32;33928;-79
2023/12/10 08:00:06;;;;;;;25.80;18.40;;;;;;;3.33;69.59;99489.81;4467522;32;34339;-79
2023/12/10 08:02:41;;;;;;;24.20;16.52;;;;;;;3.31;69.74;99494.25;4467690;32;34459;-79
2023/12/10 08:05:10;;;;;;;29.40;23.35;;;;;;;3.53;69.29;99505.44;4467628;32;33863;-79
2023/12/10 08:07:40;;;;;;;24.67;17.87;;;;;;;3.73;68.62;99504.50;4467651;32;34486;-79
2023/12/10 08:10:17;;;;;;;28.77;21.02;;;;;;;3.61;68.68;99511.19;4467522;32;34087;-79
2023/12/10 08:12:46;;;;;;;28.08;18.15;;;;;;;3.56;68.34;99509.69;4467407;32;33880;-79
2023/12/10 08:15:16;;;;;;;40.70;30.85;;;;;;;3.72;68.40;99513.28;4451910;32;34120;-79
2023/12/10 08:17:45;;;;;;;39.38;33.35;;;;;;;3.57;68.74;99508.78;4467663;32;35564;-79
2023/12/10 08:20:18;;;;;;;29.50;25.12;;;;;;;3.93;68.08;99520.13;4467690;32;33677;-79
2023/12/10 08:22:49;;;;;;;27.65;18.00;;;;;;;4.05;67.75;99518.69;4467262;32;33469;-78
2023/12/10 08:25:21;;;;;;;26.55;18.50;;;;;;;4.22;67.45;99509.97;4453755;32;33490;-78
2023/12/10 08:27:50;;;;;;;30.20;22.60;;;;;;;4.03;67.54;99523.13;4467777;32;33493;-79
2023/12/10 08:30:19;;;;;;;31.20;21.90;;;;;;;4.04;67.72;99526.59;4467658;32;33886;-78
2023/12/10 08:32:49;;;;;;;25.65;18.55;;;;;;;4.18;67.19;99525.00;4466550;32;33801;-78
2023/12/10 08:35:21;;;;;;;35.70;22.08;;;;;;;4.05;67.29;99523.94;4465319;32;33603;-78
2023/12/10 08:37:50;;;;;;;30.55;22.17;;;;;;;4.11;67.20;99521.00;4467639;32;33611;-78
2023/12/10 08:40:21;;;;;;;32.17;21.75;;;;;;;4.30;66.64;99522.72;4467201;32;35000;-78
2023/12/10 08:42:50;;;;;;;32.88;21.80;;;;;;;4.28;66.72;99532.47;4467202;32;34026;-77
2023/12/10 08:45:20;;;;;;;35.30;24.98;;;;;;;4.10;67.06;99537.66;4467852;32;34581;-79
2023/12/10 08:47:49;;;;;;;32.75;24.87;;;;;;;4.35;66.74;99536.44;4466147;32;34005;-79
2023/12/10 08:50:20;;;;;;;29.67;22.77;;;;;;;4.46;66.42;99534.16;4467171;32;34099;-79
2023/12/10 08:52:49;;;;;;;25.42;17.02;;;;;;;4.59;65.84;99535.25;4467041;32;33363;-79
2023/12/10 08:55:18;;;;;;;33.67;20.23;;;;;;;4.40;66.13;99537.09;4465366;32;33806;-79
2023/12/10 08:57:49;;;;;;;29.85;18.42;;;;;;;4.32;66.11;99552.34;4467486;32;33863;-79
2023/12/10 09:00:21;;;;;;;36.00;22.00;;;;;;;4.39;66.25;99554.56;4467826;32;34483;-79
2023/12/10 09:02:51;;;;;;;31.87;23.45;;;;;;;4.31;66.30;99566.37;4467425;32;34248;-79
2023/12/10 09:05:20;;;;;;;36.33;22.98;;;;;;;4.36;66.45;99570.50;4466984;32;33511;-79
2023/12/10 09:07:50;;;;;;;33.55;24.90;;;;;;;4.44;66.23;99565.72;4467428;32;33637;-79
2023/12/10 09:10:23;;;;;;;44.05;27.65;;;;;;;4.40;66.52;99566.78;4467214;32;34632;-79
2023/12/10 09:12:54;;;;;;;45.80;28.60;;;;;;;4.45;66.35;99561.31;4466537;32;33605;-79
2023/12/10 09:15:24;;;;;;;44.88;28.83;;;;;;;4.61;66.09;99572.75;4465533;32;33312;-79
2023/12/10 09:17:53;;;;;;;63.63;41.90;;;;;;;4.55;66.30;99570.41;4466879;32;34378;-78
2023/12/10 09:20:23;;;;;;;62.53;43.63;;;;;;;4.54;66.23;99568.72;4466683;32;34075;-78
2023/12/10 09:22:54;;;;;;;46.78;29.20;;;;;;;4.60;66.00;99571.06;4466805;32;34286;-78
2023/12/10 09:25:23;;;;;;;47.75;29.58;;;;;;;4.75;65.56;99565.94;4467244;32;33702;-79
2023/12/10 09:27:55;;;;;;;33.40;22.25;;;;;;;4.78;65.61;99568.41;4467363;32;34033;-78
2023/12/10 09:30:26;;;;;;;32.20;20.88;;;;;;;4.87;65.35;99565.31;4467094;32;34108;-79
2023/12/10 09:33:01;;;;;;;28.00;20.05;;;;;;;4.94;65.11;99570.16;4466334;32;33936;-78
2023/12/10 09:35:30;;;;;;;30.77;21.58;;;;;;;5.05;64.73;99574.03;4464366;32;33794;-79
2023/12/10 09:38:03;;;;;;;32.80;21.60;;;;;;;5.12;64.51;99573.63;4466524;32;33882;-78
2023/12/10 09:40:33;;;;;;;26.15;19.42;;;;;;;5.14;64.26;99565.66;4466548;32;34687;-78
2023/12/10 09:43:04;;;;;;;29.45;20.27;;;;;;;5.17;63.99;99574.22;4466379;32;33766;-78
2023/12/10 09:45:34;;;;;;;28.33;19.60;;;;;;;5.18;64.00;99573.28;4466846;32;34025;-78
2023/12/10 09:48:04;;;;;;;31.08;20.25;;;;;;;5.23;63.81;99569.59;4466744;32;34029;-79
2023/12/10 09:50:38;;;;;;;31.27;18.83;;;;;;;5.53;63.03;99577.62;4466641;32;34094;-79
2023/12/10 09:53:08;;;;;;;26.40;19.20;;;;;;;5.51;63.16;99580.34;4466104;32;33228;-79
2023/12/10 09:55:38;;;;;;;24.50;16.08;;;;;;;5.58;62.83;99571.22;4464772;32;34465;-79
2023/12/10 09:58:08;;;;;;;28.62;22.05;;;;;;;5.64;62.90;99575.28;4466893;32;34262;-79
2023/12/10 10:00:38;;;;;;;30.88;24.00;;;;;;;5.63;62.87;99579.69;4468899;32;33865;-79
2023/12/10 10:03:12;;;;;;;27.10;20.52;;;;;;;5.76;62.42;99579.84;4468815;32;49098;-79
2023/12/10 10:05:41;;;;;;;29.17;21.85;;;;;;;5.76;62.31;99592.16;4454224;32;33594;-79
2023/12/10 10:08:10;;;;;;;27.95;19.70;;;;;;;5.76;62.29;99582.50;4468712;32;34490;-79
2023/12/10 10:10:40;;;;;;;33.15;17.55;;;;;;;5.72;62.32;99582.75;4468634;32;33820;-79
2023/12/10 10:13:11;;;;;;;26.80;17.35;;;;;;;5.82;61.90;99576.91;4468603;32;34272;-79
2023/12/10 10:15:40;;;;;;;23.02;17.52;;;;;;;5.81;61.93;99574.34;4467178;32;34007;-79
2023/12/10 10:18:11;;;;;;;25.62;18.48;;;;;;;5.91;61.38;99563.25;4469875;32;48686;-79
2023/12/10 10:20:41;;;;;;;26.20;21.37;;;;;;;5.93;61.26;99568.44;4462916;32;33519;-79
2023/12/10 10:23:10;;;;;;;34.42;22.17;;;;;;;5.94;61.41;99571.91;4468314;32;33402;-79
2023/12/10 10:25:42;;;;;;;25.75;19.35;;;;;;;5.89;61.59;99575.63;4468091;32;34137;-79
2023/12/10 10:28:13;;;;;;;26.62;18.65;;;;;;;5.95;61.13;99573.63;4468623;32;35410;-79
2023/12/10 10:30:43;;;;;;;28.35;20.67;;;;;;;6.05;60.69;99570.38;4468512;32;33939;-78
2023/12/10 10:33:14;;;;;;;32.17;22.23;;;;;;;5.79;61.05;99586.75;4468206;32;34031;-79
2023/12/10 10:35:44;;;;;;;43.03;26.30;;;;;;;5.97;60.83;99584.91;4466531;32;33568;-79
2023/12/10 10:38:15;;;;;;;24.50;21.15;;;;;;;5.93;61.08;99583.38;4468935;32;33587;-79
2023/12/10 10:40:45;;;;;;;23.87;18.42;;;;;;;5.94;60.99;99580.69;4468301;32;34239;-79
2023/12/10 10:43:16;;;;;;;22.35;17.75;;;;;;;6.12;60.41;99592.78;4468249;32;33222;-79
2023/12/10 10:45:48;;;;;;;23.45;18.00;;;;;;;6.01;60.78;99587.28;4468384;32;34550;-78
2023/12/10 10:48:18;;;;;;;29.25;20.70;;;;;;;5.82;61.10;99590.06;4468698;32;34157;-79
2023/12/10 10:50:49;;;;;;;30.80;20.98;;;;;;;5.80;61.24;99591.06;4468544;32;33491;-79
2023/12/10 10:53:20;;;;;;;27.87;19.52;;;;;;;5.85;61.02;99587.22;4468622;32;33735;-79
2023/12/10 10:55:50;;;;;;;23.65;17.52;;;;;;;5.84;61.08;99588.19;4466817;32;33779;-79
2023/12/10 10:58:26;;;;;;;22.80;17.90;;;;;;;5.73;61.40;99597.56;4468214;32;34183;-79
2023/12/10 11:00:56;;;;;;;22.62;17.48;;;;;;;5.65;61.73;99600.62;4468462;32;33908;-79
2023/12/10 11:03:27;;;;;;;24.77;17.70;;;;;;;5.38;62.06;99589.78;4468234;32;34323;-79
2023/12/10 11:06:03;;;;;;;21.40;16.73;;;;;;;5.59;61.46;99588.66;4467744;32;33493;-79
2023/12/10 11:08:36;;;;;;;27.15;16.85;;;;;;;5.73;61.18;99589.69;4468463;32;33610;-79
2023/12/10 11:11:05;;;;;;;25.10;16.77;;;;;;;5.57;61.95;99585.25;4467807;32;35313;-79
2023/12/10 11:13:45;;;;;;;38.72;27.13;;;;;;;5.52;62.34;99586.44;4467789;32;34536;-80
2023/12/10 11:16:15;;;;;;;34.58;27.00;;;;;;;5.65;62.15;99593.56;4451842;32;32474;-79
2023/12/10 11:18:58;;;;;;;29.92;21.58;;;;;;;5.50;62.68;99593.56;4468338;32;34001;-79
2023/12/10 11:21:29;;;;;;;27.23;17.35;;;;;;;5.41;63.31;99592.25;4468321;32;34087;-79
2023/12/10 11:23:58;;;;;;;24.33;18.67;;;;;;;5.64;62.63;99597.16;4467966;32;34607;-79
2023/12/10 11:26:28;;;;;;;30.75;22.23;;;;;;;5.69;62.55;99599.53;4468144;32;33803;-79
2023/12/10 11:28:58;;;;;;;28.35;19.87;;;;;;;5.81;62.08;99604.09;4467973;32;33495;-79
2023/12/10 11:31:31;;;;;;;23.48;17.58;;;;;;;5.97;61.06;99603.31;4468063;32;33767;-79
2023/12/10 11:34:02;;;;;;;20.67;15.55;;;;;;;5.84;61.20;99611.84;4467626;32;33399;-79
2023/12/10 11:36:32;;;;;;;21.43;15.87;;;;;;;5.46;62.65;99613.88;4466417;32;35050;-79
2023/12/10 11:39:12;;;;;;;29.37;22.58;;;;;;;5.51;62.73;99614.50;4453630;32;32604;-79